Latest Weather Observations for Lucas Heights (ANSTO)

IDN60801

Issued at 1:37 am EDT Friday 29 January 2021 (issued every 10 minutes, with the page automatically refreshed every 10 minutes)

About weather observations | Map of weather stations | Latest weather observations for NSW | Other Formats
Station Details ID: 066023 Name: LUCAS HEIGHTS (ANSTO) Lat: -34.05 Lon: 150.98 Height: 140.0 m
Data from the previous 72 hours. | See also: Recent months for locations in New South Wales
Date/Time
EDT
Temp
°C
App
Temp
°C
Dew
Point
°C
Rel
Hum
%
Delta-T
°C
Wind Press
QNH
hPa
Press
MSL
hPa
Rain since
9am
mm
Dir  Spd
km/h
Gust
km/h
Spd
kts
Gust
kts
29/01:15am 18.6 17.9 16.3 86 1.4 ESE 15 17 8 9 1019.4 - 3.0
29/01:00am 18.7 17.6 16.4 86 1.4 ESE 17 20 9 11 1019.4 - 3.0
29/12:45am 18.6 17.5 16.4 87 1.3 E 17 20 9 11 1019.6 - 3.0
29/12:30am 18.7 17.6 16.3 86 1.4 ESE 17 22 9 12 1019.9 - 3.0
29/12:15am 18.7 17.0 16.2 85 1.5 E 20 26 11 14 1019.9 - 3.0
29/12:00am 18.5 17.0 16.3 87 1.3 E 19 26 10 14 1020.1 - 3.0
 
Date/Time
EDT
Temp
°C
App
Temp
°C
Dew
Point
°C
Rel
Hum
%
Delta-T
°C
Wind Press
QNH
hPa
Press
MSL
hPa
Rain since
9am
mm
Dir  Spd
km/h
Gust
km/h
Spd
kts
Gust
kts
28/11:45pm 18.5 16.8 16.2 86 1.4 ESE 20 24 11 13 1020.3 - 3.0
28/11:00pm 18.2 16.1 16.1 87 1.3 ESE 22 26 12 14 1020.4 - 1.9
28/10:45pm 17.6 16.3 15.9 90 1.0 NE 17 24 9 13 1020.9 - 1.9
28/10:32pm 18.1 16.8 15.8 86 1.4 E 17 28 9 15 1020.8 - 0.9
28/10:17pm 18.1 16.3 16.1 88 1.2 ESE 20 26 11 14 1020.8 - 0.6
28/08:15pm 17.0 15.0 15.4 90 0.9 SSE 20 28 11 15 1020.6 - 0.6
28/08:00pm 17.2 15.2 15.5 90 1.0 SE 20 26 11 14 1020.7 - 0.6
28/07:45pm 17.3 15.3 15.5 89 1.1 ESE 20 28 11 15 1020.7 - 0.4
28/07:30pm 17.3 15.5 15.4 88 1.1 SE 19 28 10 15 1020.5 - 0.2
28/07:15pm 17.7 15.3 15.3 86 1.4 SE 22 32 12 17 1020.3 - 0.2
28/07:00pm 18.1 14.9 15.4 84 1.6 SE 26 37 14 20 1020.0 - 0.0
28/06:45pm 18.8 14.5 15.4 80 2.0 ESE 32 43 17 23 1019.9 - 0.0
28/06:30pm 19.0 14.7 15.4 79 2.1 ESE 32 43 17 23 1019.8 - 0.0
28/06:15pm 19.3 15.0 15.4 78 2.3 ESE 32 43 17 23 1019.8 - 0.0
28/06:00pm 19.2 17.3 15.1 77 2.4 ESE 19 32 10 17 1019.8 - 0.0
28/05:45pm 18.9 17.4 15.2 79 2.2 SE 17 24 9 13 1019.9 - 0.0
28/05:30pm 18.6 16.7 15.1 80 2.1 SE 19 26 10 14 1020.0 - 0.0
28/05:15pm 18.7 16.6 15.3 80 2.0 SE 20 28 11 15 1020.1 - 0.0
28/04:45pm 19.0 16.1 15.0 77 2.4 SE 24 35 13 19 1020.2 - 0.0
28/04:30pm 19.8 16.0 14.8 73 2.9 SE 28 39 15 21 1020.2 - 0.0
28/04:15pm 19.9 16.8 14.5 71 3.2 ESE 24 35 13 19 1020.2 - 0.0
28/04:00pm 20.2 16.7 14.5 69 3.3 ESE 26 37 14 20 1020.2 - 0.0
28/03:45pm 20.4 15.7 14.4 68 3.5 ESE 32 37 17 20 1020.3 - 0.0
28/03:30pm 20.4 15.7 14.4 68 3.5 ESE 32 39 17 21 1020.3 - 0.0
28/03:15pm 20.5 16.6 14.3 67 3.6 ESE 28 37 15 20 1020.4 - 0.0
28/03:00pm 20.4 16.5 14.5 69 3.5 ESE 28 35 15 19 1020.5 - 0.0
28/02:45pm 20.3 16.0 14.3 68 3.5 ESE 30 37 16 20 1020.8 - 0.0
28/02:30pm 20.3 16.0 14.5 69 3.4 ESE 30 37 16 20 1020.8 - 0.0
28/02:15pm 20.0 15.7 14.3 69 3.3 ESE 30 37 16 20 1020.8 - 0.0
28/02:00pm 20.2 16.7 14.5 69 3.3 ESE 26 37 14 20 1020.8 - 0.0
28/01:45pm 20.4 15.5 13.8 66 3.8 ESE 32 35 17 19 1020.9 - 0.0
28/01:30pm 20.9 16.7 13.6 63 4.2 ESE 28 35 15 19 1020.9 - 0.0
28/01:15pm 20.8 16.1 13.2 61 4.4 ESE 30 39 16 21 1021.1 - 0.0
28/01:00pm 20.6 15.9 13.2 62 4.2 ESE 30 37 16 20 1021.2 - 0.0
28/12:45pm 20.7 17.2 13.5 63 4.2 ESE 24 35 13 19 1021.3 - 0.0
28/12:30pm 20.6 16.1 13.7 64 4.0 ESE 30 43 16 23 1021.4 - 0.0
28/12:15pm 20.4 15.3 13.6 65 3.9 ESE 33 39 18 21 1021.5 - 0.0
28/12:00pm 20.2 15.2 14.1 68 3.6 ESE 33 39 18 21 1021.4 - 0.0
28/11:45am 19.6 16.6 14.8 74 2.8 ESE 24 35 13 19 1021.5 - 0.0
28/11:30am 18.5 15.2 15.1 80 2.0 ESE 26 32 14 17 1021.5 - 0.0
28/11:15am 18.6 14.6 15.2 80 2.0 ESE 30 35 16 19 1021.5 - 0.0
28/11:00am 18.9 15.4 15.5 80 2.0 ESE 28 37 15 20 1021.4 - 0.0
28/10:45am 19.3 14.9 15.2 77 2.4 ESE 32 39 17 21 1021.2 - 0.0
28/10:30am 20.0 17.0 14.8 72 3.1 ESE 24 37 13 20 1021.1 - 0.0
28/10:15am 19.9 16.4 14.5 71 3.2 ESE 26 35 14 19 1021.1 - 0.0
28/10:00am 19.8 15.9 14.5 71 3.1 ESE 28 37 15 20 1021.0 - 0.0
28/09:45am 19.7 15.9 14.7 73 2.9 ESE 28 37 15 20 1020.8 - 0.0
28/09:30am 19.7 15.6 14.9 74 2.8 ESE 30 37 16 20 1020.8 - 0.0
28/09:15am 19.7 16.0 15.0 74 2.8 ESE 28 35 15 19 1020.6 - 0.0
28/09:00am 19.7 15.6 15.0 74 2.8 ESE 30 39 16 21 1020.6 - 12.9
28/08:45am 19.7 16.0 15.1 75 2.7 ESE 28 35 15 19 1020.6 - 12.9
28/08:30am 19.6 15.3 15.3 76 2.5 ESE 32 37 17 20 1020.4 - 12.9
28/08:15am 19.6 16.8 15.4 77 2.5 ESE 24 30 13 16 1020.3 - 12.9
28/08:00am 19.7 15.7 15.3 76 2.6 ESE 30 35 16 19 1020.1 - 12.9
28/07:45am 19.6 16.4 15.4 77 2.5 ESE 26 35 14 19 1019.9 - 12.9
28/07:30am 19.5 16.3 15.3 76 2.5 ESE 26 35 14 19 1019.7 - 12.9
28/07:15am 19.4 17.0 15.3 77 2.4 ESE 22 32 12 17 1019.6 - 12.9
28/07:00am 19.2 16.8 15.5 79 2.2 ESE 22 32 12 17 1019.4 - 12.9
28/06:45am 19.1 16.7 15.5 79 2.1 ESE 22 30 12 16 1019.3 - 12.9
28/06:30am 18.7 15.6 15.6 82 1.8 ESE 26 30 14 16 1019.2 - 12.9
28/06:15am 18.4 14.9 15.5 83 1.7 ESE 28 37 15 20 1019.1 - 12.9
28/06:00am 18.9 15.4 15.5 80 2.0 ESE 28 37 15 20 1019.0 - 12.9
28/05:45am 19.0 15.9 15.6 80 2.0 ESE 26 32 14 17 1018.7 - 12.9
28/05:30am 18.9 16.2 15.7 82 1.9 ESE 24 28 13 15 1018.4 - 12.7
28/05:15am 18.7 15.3 15.7 83 1.8 ESE 28 32 15 17 1018.1 - 12.7
28/05:00am 18.6 15.1 15.6 83 1.8 ESE 28 35 15 19 1018.0 - 12.7
28/03:45am 18.6 16.5 16.2 86 1.4 ESE 22 30 12 16 1017.9 - 12.7
28/03:30am 18.6 15.4 16.3 86 1.4 ESE 28 33 15 18 1018.0 - 12.7
28/03:15am 18.3 14.7 16.3 88 1.2 ESE 30 37 16 20 1018.1 - 12.7
28/02:45am 17.7 16.0 16.3 91 0.8 ESE 20 30 11 16 1018.3 - 12.7
28/02:30am 17.7 16.0 16.2 91 0.9 SE 20 30 11 16 1018.4 - 12.7
28/02:15am 17.5 15.0 16.1 91 0.8 ESE 24 32 13 17 1018.4 - 12.7
28/02:00am 17.5 13.8 16.0 91 0.9 ESE 30 43 16 23 1018.3 - 12.7
28/01:45am 17.8 14.2 16.3 91 0.9 ESE 30 39 16 21 1018.3 - 12.7
28/01:15am 17.7 15.6 16.1 90 1.0 ESE 22 28 12 15 1018.5 - 12.5
28/01:00am 17.8 15.3 16.1 90 1.0 ESE 24 32 13 17 1018.5 - 12.5
28/12:45am 17.9 13.9 16.1 89 1.1 ESE 32 35 17 19 1018.3 - 12.5
28/12:30am 17.9 14.2 16.1 89 1.1 ESE 30 39 16 21 1018.5 - 12.5
28/12:15am 17.9 14.6 16.1 89 1.1 ESE 28 32 15 17 1018.6 - 12.5
28/12:00am 17.9 14.2 16.1 89 1.1 ESE 30 39 16 21 1018.5 - 12.5
 
Date/Time
EDT
Temp
°C
App
Temp
°C
Dew
Point
°C
Rel
Hum
%
Delta-T
°C
Wind Press
QNH
hPa
Press
MSL
hPa
Rain since
9am
mm
Dir  Spd
km/h
Gust
km/h
Spd
kts
Gust
kts
27/11:45pm 17.8 14.1 16.1 90 1.0 ESE 30 35 16 19 1018.6 - 12.5
27/11:32pm 17.7 14.0 16.1 90 1.0 ESE 30 37 16 20 1018.7 - 12.5
27/08:30pm 17.9 16.3 16.6 92 0.8 ESE 20 30 11 16 1017.2 - 9.3
27/08:15pm 17.9 17.2 16.5 91 0.8 SE 15 20 8 11 1017.1 - 6.3
27/08:00pm 17.8 16.7 16.4 91 0.8 SE 17 22 9 12 1016.9 - 3.8
27/07:45pm 17.8 16.1 16.3 91 0.9 SSE 20 26 11 14 1016.7 - 1.3
27/07:30pm 17.8 16.1 16.2 90 1.0 SSE 20 28 11 15 1016.5 - 0.9
27/07:15pm 17.8 16.1 16.2 90 1.0 SSE 20 26 11 14 1016.3 - 0.8
27/07:00pm 17.8 17.0 16.1 90 1.0 SSE 15 20 8 11 1016.0 - 0.6
27/06:00pm 18.1 16.0 16.2 89 1.1 SSE 22 30 12 16 1015.1 - 0.4
27/05:45pm 18.2 16.1 16.2 88 1.2 SSE 22 35 12 19 1014.9 - 0.4
27/05:30pm 18.3 16.8 16.2 87 1.3 SSE 19 28 10 15 1014.7 - 0.4
27/05:15pm 18.4 15.5 16.0 86 1.4 SSE 26 33 14 18 1014.6 - 0.4
27/05:00pm 19.1 16.2 16.1 83 1.8 SSE 26 35 14 19 1014.6 - 0.2
27/04:45pm 19.4 15.7 16.1 81 2.0 SSE 30 39 16 21 1014.5 - 0.0
27/04:30pm 19.5 15.3 16.2 81 2.0 SSE 33 44 18 24 1014.4 - 0.0
27/04:15pm 19.7 15.8 16.5 82 1.9 SSE 32 48 17 26 1014.4 - 0.0
27/04:00pm 19.5 15.4 16.4 82 1.9 SSE 33 48 18 26 1014.3 - 0.0
27/03:45pm 19.7 15.2 16.5 82 1.9 SSE 35 52 19 28 1014.3 - 0.0
27/03:15pm 19.6 15.6 16.3 81 2.0 SSE 32 48 17 26 1014.3 - 0.0
27/03:00pm 20.1 15.5 16.2 78 2.4 SSE 35 48 19 26 1014.2 - 0.0
27/02:45pm 20.3 14.8 15.8 75 2.7 SSE 39 52 21 28 1014.2 - 0.0
27/02:30pm 20.6 14.9 16.3 76 2.6 SSE 41 54 22 29 1014.0 - 0.0
27/02:15pm 20.5 15.2 16.3 77 2.5 SSE 39 52 21 28 1013.9 - 0.0
27/02:00pm 21.0 16.6 16.7 76 2.6 SSE 35 44 19 24 1013.8 - 0.0
27/01:47pm 21.6 17.3 16.9 74 2.9 SSE 35 50 19 27 1013.6 - 0.0
27/12:45pm 21.0 16.8 17.2 79 2.3 SSE 35 50 19 27 1013.4 - 0.0
27/12:30pm 20.5 16.0 17.3 82 2.0 SE 37 52 20 28 1013.3 - 0.0
27/12:15pm 20.3 16.1 17.1 82 2.0 SSE 35 48 19 26 1013.3 - 0.0
27/12:00pm 20.3 15.3 17.1 82 2.0 SE 39 50 21 27 1013.1 - 0.0
27/11:45am 20.6 16.5 17.3 81 2.0 SSE 35 57 19 31 1013.1 - 0.0
27/11:30am 20.5 16.4 17.4 82 1.9 SE 35 56 19 30 1012.9 - 0.0
27/11:15am 20.4 16.7 17.4 83 1.8 SE 33 46 18 25 1012.8 - 0.0
27/11:00am 20.3 16.6 17.5 84 1.7 SE 33 48 18 26 1012.6 - 0.0
27/10:45am 20.0 16.6 17.6 86 1.5 SE 32 44 17 24 1012.4 - 0.0
27/10:30am 19.9 15.9 17.7 87 1.4 SE 35 50 19 27 1012.3 - 0.0
27/10:15am 19.8 15.8 17.6 87 1.4 SSE 35 48 19 26 1012.2 - 0.0
27/10:00am 20.0 16.0 17.7 86 1.4 SSE 35 46 19 25 1012.0 - 0.0
27/09:45am 20.0 16.0 17.6 86 1.5 SSE 35 44 19 24 1012.0 - 0.0
27/09:30am 20.3 16.9 17.8 85 1.5 SSE 32 44 17 24 1011.8 - 0.0
27/09:15am 20.2 16.6 17.7 85 1.5 SSE 33 46 18 25 1011.5 - 0.0
27/09:00am 20.4 16.4 17.7 84 1.7 SSE 35 50 19 27 1011.2 - 0.0
27/08:45am 20.4 16.4 17.7 84 1.7 SSE 35 48 19 26 1010.9 - 0.0
27/08:30am 20.2 15.9 17.8 86 1.5 SSE 37 44 20 24 1010.7 - 0.0
27/08:15am 20.1 15.7 17.6 85 1.5 SSE 37 56 20 30 1010.5 - 0.0
27/08:00am 20.0 15.7 17.7 86 1.4 SSE 37 48 20 26 1010.3 - 0.0
27/07:45am 19.8 15.4 17.5 86 1.4 SSE 37 52 20 28 1010.0 - 0.0
27/03:00am 22.1 20.4 19.8 87 1.5 SSE 28 37 15 20 1006.4 - 0.0
27/02:45am 22.4 22.9 20.0 86 1.6 SSE 17 24 9 13 1006.3 - 0.0
27/02:30am 22.5 22.6 20.0 86 1.6 SE 19 28 10 15 1006.2 - 0.0
27/02:15am 22.5 22.9 19.9 85 1.7 SSE 17 26 9 14 1006.3 - 0.0
27/02:00am 22.5 20.8 19.8 85 1.7 SSE 28 39 15 21 1005.8 - 0.0
27/01:45am 22.4 19.4 19.9 86 1.6 SSE 35 43 19 23 1005.6 - 0.0
27/01:30am 22.3 18.9 19.9 86 1.5 SSE 37 44 20 24 1005.5 - 0.0
27/01:15am 22.4 19.9 19.7 85 1.7 SSE 32 37 17 20 1005.5 - 0.0
27/01:00am 22.3 19.6 19.7 85 1.7 SE 33 41 18 22 1005.4 - 0.0
27/12:45am 22.2 19.6 19.8 86 1.5 SE 33 41 18 22 1005.5 - 0.0
27/12:30am 22.1 20.0 19.7 86 1.5 SE 30 37 16 20 1005.6 - 0.0
27/12:15am 22.0 19.2 19.4 85 1.7 SE 33 39 18 21 1005.3 - 0.0
27/12:00am 22.1 19.1 19.1 83 1.9 SSE 33 39 18 21 1005.3 - 0.0
 
Date/Time
EDT
Temp
°C
App
Temp
°C
Dew
Point
°C
Rel
Hum
%
Delta-T
°C
Wind Press
QNH
hPa
Press
MSL
hPa
Rain since
9am
mm
Dir  Spd
km/h
Gust
km/h
Spd
kts
Gust
kts
26/11:45pm 22.1 18.6 18.7 81 2.2 SE 35 41 19 22 1005.1 - 0.0
26/11:30pm 22.6 19.2 18.2 76 2.8 SE 33 43 18 23 1005.4 - 0.0
26/11:15pm 23.3 21.0 18.4 74 3.1 SSE 28 33 15 18 1005.7 - 0.0
26/11:00pm 23.6 21.4 18.7 74 3.1 SSE 28 32 15 17 1005.5 - 0.0
26/10:45pm 24.0 21.8 18.8 72 3.3 SSE 28 32 15 17 1005.4 - 0.0
26/10:30pm 23.9 22.1 18.7 72 3.3 SSE 26 32 14 17 1005.4 - 0.0
26/10:15pm 24.4 21.6 18.2 68 3.9 SSE 30 37 16 20 1005.1 - 0.0
26/10:02pm 25.4 22.8 17.7 62 4.9 SSE 28 35 15 19 1004.8 - 0.0
26/02:15pm 37.5 32.2 8.4 17 16.7 W 26 35 14 19 999.7 - 0.0
26/02:00pm 37.1 33.3 9.0 18 16.2 WNW 19 30 10 16 999.7 - 0.0
26/01:30pm 37.4 33.4 9.0 18 16.4 WNW 20 37 11 20 1000.1 - 0.0
26/01:15pm 36.6 32.9 10.1 20 15.5 NW 20 37 11 20 1000.4 - 0.0
26/01:00pm 36.3 32.9 11.2 22 14.9 W 20 37 11 20 1000.6 - 0.0
26/12:45pm 35.6 31.5 11.5 23 14.4 W 24 33 13 18 1000.8 - 0.0
26/12:15pm 35.5 31.8 11.5 23 14.3 W 22 37 12 20 1001.1 - 0.0
26/12:00pm 34.9 31.2 11.6 24 13.9 WNW 22 35 12 19 1001.2 - 0.0
26/10:30am 34.6 31.7 12.4 26 13.4 WNW 19 28 10 15 1001.3 - 0.0
26/10:15am 30.1 29.6 16.8 44 8.4 WNW 15 17 8 9 1002.3 - 0.0
26/10:00am 29.1 29.4 17.8 50 7.2 WNW 13 17 7 9 1002.4 - 0.0
26/09:45am 27.9 28.8 18.3 56 6.2 WNW 11 17 6 9 1002.4 - 0.0
26/09:30am 27.2 27.2 18.2 58 5.7 WNW 15 17 8 9 1002.4 - 0.0
26/09:15am 26.8 27.5 18.8 61 5.1 NW 13 15 7 8 1002.5 - 0.0
26/09:00am 25.9 26.7 19.0 65 4.4 WNW 13 20 7 11 1002.5 - 0.0
26/08:45am 25.0 25.4 19.1 70 3.8 WNW 15 17 8 9 1002.5 - 0.0
26/08:30am 24.6 25.2 19.4 73 3.4 WNW 15 17 8 9 1002.4 - 0.0
26/08:15am 24.1 25.2 19.6 76 2.9 WNW 13 19 7 10 1002.4 - 0.0
26/08:00am 23.4 24.9 19.7 80 2.4 WNW 11 13 6 7 1002.4 - 0.0
26/07:45am 22.9 24.5 19.9 83 1.9 WNW 11 15 6 8 1002.2 - 0.0
26/07:30am 22.1 24.6 20.2 89 1.2 WNW 7 11 4 6 1002.2 - 0.0
26/07:15am 21.4 23.4 20.0 92 0.9 WNW 9 11 5 6 1002.2 - 0.0
26/07:00am 20.7 22.4 19.4 92 0.8 WNW 9 9 5 5 1002.2 - 0.0
26/06:45am 20.3 21.8 19.0 92 0.8 WNW 9 9 5 5 1002.2 - 0.0
26/06:30am 19.8 20.7 18.5 92 0.8 NW 11 9 6 5 1002.1 - 0.0
26/06:15am 19.8 20.7 18.4 92 0.9 NW 11 11 6 6 1002.0 - 0.0
26/06:00am 20.0 21.0 18.6 92 0.9 NW 11 11 6 6 1002.0 - 0.0
26/05:45am 20.1 21.5 18.7 92 0.9 NW 9 9 5 5 1001.9 - 0.0
26/05:30am 20.0 21.3 18.5 91 0.9 NW 9 9 5 5 1001.7 - 0.0
26/05:15am 20.1 21.8 18.6 91 0.9 NW 7 9 4 5 1001.6 - 0.0
26/05:00am 20.1 21.5 18.6 91 0.9 NW 9 9 5 5 1001.7 - 0.0
26/04:45am 20.2 21.6 18.6 90 1.0 NNW 9 9 5 5 1001.7 - 0.0
26/04:30am 20.4 21.8 18.7 90 1.1 NW 9 9 5 5 1001.7 - 0.0
26/04:15am 20.4 21.8 18.7 90 1.1 NW 9 9 5 5 1001.7 - 0.0
26/04:00am 20.4 21.9 18.8 90 1.0 NNW 9 9 5 5 1001.9 - 0.0
26/03:45am 20.5 22.3 18.8 90 1.1 NNW 7 9 4 5 1002.0 - 0.0
26/03:30am 20.6 22.1 18.9 90 1.1 NNW 9 9 5 5 1002.2 - 0.0
26/02:45am 20.9 22.4 19.0 89 1.2 N 9 11 5 6 1002.7 - 0.0
26/02:30am 21.0 23.0 19.1 89 1.2 N 7 9 4 5 1002.8 - 0.0
26/02:15am 21.1 23.2 19.0 88 1.3 NNE 6 7 3 4 1003.0 - 0.0
26/02:00am 21.1 23.0 19.0 88 1.3 NNE 7 9 4 5 1003.2 - 0.0
26/01:45am 21.2 22.8 19.1 88 1.3 NNE 9 9 5 5 1003.3 - 0.0

Other formats

Comma delimited format used in spreadsheet applications
http://www.bom.gov.au/fwo/IDN60801/IDN60801.95757.axf

JavaScript Object Notation format (JSON) in row-major order
http://www.bom.gov.au/fwo/IDN60801/IDN60801.95757.json

Data quality

Most of these data are generated automatically and are frequently updated. Quality checks on data are not normally performed. It is possible for incorrect values to appear. Refer to information at About Latest Weather Observations and please check the disclaimer before using these data.